sensor_id;sensor_type;location;lat;lon;timestamp;P1;durP1;ratioP1;P2;durP2;ratioP2
36797;SDS011;22748;8.426;99.512;2024-01-07T00:02:18;37.65;;;27.80;;
36797;SDS011;22748;8.426;99.512;2024-01-07T00:04:52;43.38;;;31.60;;
36797;SDS011;22748;8.426;99.512;2024-01-07T00:07:22;38.42;;;28.30;;
36797;SDS011;22748;8.426;99.512;2024-01-07T00:09:53;47.42;;;34.42;;
36797;SDS011;22748;8.426;99.512;2024-01-07T00:12:24;36.33;;;28.83;;
36797;SDS011;22748;8.426;99.512;2024-01-07T00:15:01;49.92;;;39.17;;
36797;SDS011;22748;8.426;99.512;2024-01-07T00:17:33;101.85;;;36.65;;
36797;SDS011;22748;8.426;99.512;2024-01-07T00:20:04;58.63;;;31.15;;
36797;SDS011;22748;8.426;99.512;2024-01-07T00:22:36;51.45;;;36.45;;
36797;SDS011;22748;8.426;99.512;2024-01-07T00:25:07;47.85;;;32.40;;
36797;SDS011;22748;8.426;99.512;2024-01-07T00:30:13;56.47;;;38.97;;
36797;SDS011;22748;8.426;99.512;2024-01-07T00:32:44;71.28;;;53.03;;
36797;SDS011;22748;8.426;99.512;2024-01-07T00:35:17;64.95;;;48.90;;
36797;SDS011;22748;8.426;99.512;2024-01-07T00:37:51;56.45;;;44.60;;
36797;SDS011;22748;8.426;99.512;2024-01-07T00:40:22;63.25;;;45.03;;
36797;SDS011;22748;8.426;99.512;2024-01-07T00:42:53;53.50;;;40.33;;
36797;SDS011;22748;8.426;99.512;2024-01-07T00:45:26;52.20;;;39.55;;
36797;SDS011;22748;8.426;99.512;2024-01-07T00:47:57;49.53;;;40.80;;
36797;SDS011;22748;8.426;99.512;2024-01-07T00:50:28;54.63;;;41.30;;
36797;SDS011;22748;8.426;99.512;2024-01-07T00:52:59;48.63;;;38.88;;
36797;SDS011;22748;8.426;99.512;2024-01-07T00:55:30;51.30;;;38.90;;
36797;SDS011;22748;8.426;99.512;2024-01-07T00:58:02;52.03;;;40.92;;
36797;SDS011;22748;8.426;99.512;2024-01-07T01:03:09;72.45;;;50.20;;
36797;SDS011;22748;8.426;99.512;2024-01-07T01:05:40;65.60;;;46.45;;
36797;SDS011;22748;8.426;99.512;2024-01-07T01:08:11;57.40;;;43.03;;
36797;SDS011;22748;8.426;99.512;2024-01-07T01:10:43;52.03;;;41.20;;
36797;SDS011;22748;8.426;99.512;2024-01-07T01:13:14;66.68;;;42.45;;
36797;SDS011;22748;8.426;99.512;2024-01-07T01:15:51;55.10;;;40.90;;
36797;SDS011;22748;8.426;99.512;2024-01-07T01:18:22;63.58;;;42.30;;
36797;SDS011;22748;8.426;99.512;2024-01-07T01:20:55;55.30;;;41.00;;
36797;SDS011;22748;8.426;99.512;2024-01-07T01:23:25;64.45;;;48.85;;
36797;SDS011;22748;8.426;99.512;2024-01-07T01:25:57;65.93;;;47.45;;
36797;SDS011;22748;8.426;99.512;2024-01-07T01:28:28;56.70;;;43.92;;
36797;SDS011;22748;8.426;99.512;2024-01-07T01:31:05;60.10;;;44.95;;
36797;SDS011;22748;8.426;99.512;2024-01-07T01:33:36;70.15;;;45.10;;
36797;SDS011;22748;8.426;99.512;2024-01-07T01:36:07;68.20;;;44.95;;
36797;SDS011;22748;8.426;99.512;2024-01-07T01:38:39;71.93;;;53.08;;
36797;SDS011;22748;8.426;99.512;2024-01-07T01:41:10;61.17;;;44.92;;
36797;SDS011;22748;8.426;99.512;2024-01-07T01:43:40;57.17;;;41.00;;
36797;SDS011;22748;8.426;99.512;2024-01-07T01:46:17;52.72;;;39.30;;
36797;SDS011;22748;8.426;99.512;2024-01-07T01:48:48;52.13;;;39.55;;
36797;SDS011;22748;8.426;99.512;2024-01-07T01:51:20;54.45;;;38.17;;
36797;SDS011;22748;8.426;99.512;2024-01-07T01:53:51;46.53;;;36.10;;
36797;SDS011;22748;8.426;99.512;2024-01-07T01:56:24;49.50;;;36.03;;
36797;SDS011;22748;8.426;99.512;2024-01-07T01:58:59;60.70;;;46.00;;
36797;SDS011;22748;8.426;99.512;2024-01-07T02:01:36;61.78;;;43.63;;
36797;SDS011;22748;8.426;99.512;2024-01-07T02:04:08;51.15;;;38.17;;
36797;SDS011;22748;8.426;99.512;2024-01-07T02:06:39;45.58;;;36.08;;
36797;SDS011;22748;8.426;99.512;2024-01-07T02:09:11;41.83;;;34.42;;
36797;SDS011;22748;8.426;99.512;2024-01-07T02:11:42;43.78;;;34.53;;
36797;SDS011;22748;8.426;99.512;2024-01-07T02:14:28;44.20;;;33.72;;
36797;SDS011;22748;8.426;99.512;2024-01-07T02:17:05;40.78;;;31.02;;
36797;SDS011;22748;8.426;99.512;2024-01-07T02:19:36;41.97;;;29.45;;
36797;SDS011;22748;8.426;99.512;2024-01-07T02:22:07;39.88;;;28.55;;
36797;SDS011;22748;8.426;99.512;2024-01-07T02:24:43;43.78;;;34.75;;
36797;SDS011;22748;8.426;99.512;2024-01-07T02:27:14;43.55;;;34.00;;
36797;SDS011;22748;8.426;99.512;2024-01-07T02:29:44;40.70;;;31.83;;
36797;SDS011;22748;8.426;99.512;2024-01-07T02:32:16;41.13;;;31.05;;
36797;SDS011;22748;8.426;99.512;2024-01-07T02:34:46;38.22;;;27.80;;
36797;SDS011;22748;8.426;99.512;2024-01-07T02:37:17;34.50;;;26.95;;
36797;SDS011;22748;8.426;99.512;2024-01-07T02:39:55;35.80;;;26.55;;
36797;SDS011;22748;8.426;99.512;2024-01-07T02:42:26;37.55;;;27.55;;
36797;SDS011;22748;8.426;99.512;2024-01-07T02:44:58;37.90;;;27.17;;
36797;SDS011;22748;8.426;99.512;2024-01-07T02:47:28;45.58;;;28.33;;
36797;SDS011;22748;8.426;99.512;2024-01-07T02:49:59;45.22;;;28.30;;
36797;SDS011;22748;8.426;99.512;2024-01-07T02:52:30;38.10;;;27.02;;
36797;SDS011;22748;8.426;99.512;2024-01-07T02:55:06;44.35;;;27.17;;
36797;SDS011;22748;8.426;99.512;2024-01-07T02:57:38;38.00;;;26.58;;
36797;SDS011;22748;8.426;99.512;2024-01-07T03:00:08;43.47;;;25.80;;
36797;SDS011;22748;8.426;99.512;2024-01-07T03:02:40;32.05;;;24.13;;
36797;SDS011;22748;8.426;99.512;2024-01-07T03:05:10;37.03;;;24.63;;
36797;SDS011;22748;8.426;99.512;2024-01-07T03:07:41;32.83;;;25.15;;
36797;SDS011;22748;8.426;99.512;2024-01-07T03:10:18;35.45;;;25.63;;
36797;SDS011;22748;8.426;99.512;2024-01-07T03:12:49;33.30;;;25.13;;
36797;SDS011;22748;8.426;99.512;2024-01-07T03:15:20;32.78;;;23.95;;
36797;SDS011;22748;8.426;99.512;2024-01-07T03:17:51;32.05;;;26.55;;
36797;SDS011;22748;8.426;99.512;2024-01-07T03:20:21;33.80;;;26.63;;
36797;SDS011;22748;8.426;99.512;2024-01-07T03:22:53;38.88;;;32.58;;
36797;SDS011;22748;8.426;99.512;2024-01-07T03:25:30;36.58;;;28.88;;
36797;SDS011;22748;8.426;99.512;2024-01-07T03:28:01;30.98;;;25.23;;
36797;SDS011;22748;8.426;99.512;2024-01-07T03:30:33;32.08;;;23.92;;
36797;SDS011;22748;8.426;99.512;2024-01-07T03:33:04;33.72;;;24.65;;
36797;SDS011;22748;8.426;99.512;2024-01-07T03:35:34;27.52;;;23.90;;
36797;SDS011;22748;8.426;99.512;2024-01-07T03:38:06;31.17;;;24.05;;
36797;SDS011;22748;8.426;99.512;2024-01-07T03:40:39;30.92;;;25.95;;
36797;SDS011;22748;8.426;99.512;2024-01-07T03:43:10;35.72;;;27.48;;
36797;SDS011;22748;8.426;99.512;2024-01-07T03:45:41;35.05;;;25.20;;
36797;SDS011;22748;8.426;99.512;2024-01-07T03:48:12;31.27;;;25.23;;
36797;SDS011;22748;8.426;99.512;2024-01-07T03:50:43;37.67;;;26.55;;
36797;SDS011;22748;8.426;99.512;2024-01-07T03:53:14;30.15;;;26.35;;
36797;SDS011;22748;8.426;99.512;2024-01-07T03:55:47;32.85;;;25.23;;
36797;SDS011;22748;8.426;99.512;2024-01-07T03:58:18;33.75;;;24.73;;
36797;SDS011;22748;8.426;99.512;2024-01-07T04:00:49;29.05;;;23.77;;
36797;SDS011;22748;8.426;99.512;2024-01-07T04:03:20;27.85;;;24.17;;
36797;SDS011;22748;8.426;99.512;2024-01-07T04:05:51;34.45;;;23.80;;
36797;SDS011;22748;8.426;99.512;2024-01-07T04:08:21;27.60;;;22.85;;
36797;SDS011;22748;8.426;99.512;2024-01-07T04:13:27;34.35;;;24.27;;
36797;SDS011;22748;8.426;99.512;2024-01-07T04:15:58;35.03;;;23.88;;
36797;SDS011;22748;8.426;99.512;2024-01-07T04:20:58;34.40;;;25.02;;
36797;SDS011;22748;8.426;99.512;2024-01-07T04:23:29;31.83;;;23.60;;
36797;SDS011;22748;8.426;99.512;2024-01-07T04:26:06;33.40;;;25.33;;
36797;SDS011;22748;8.426;99.512;2024-01-07T04:28:39;47.33;;;30.48;;
36797;SDS011;22748;8.426;99.512;2024-01-07T04:31:11;41.38;;;29.38;;
36797;SDS011;22748;8.426;99.512;2024-01-07T04:33:42;39.97;;;28.67;;
36797;SDS011;22748;8.426;99.512;2024-01-07T04:36:13;39.00;;;27.00;;
36797;SDS011;22748;8.426;99.512;2024-01-07T04:38:43;33.40;;;25.90;;
36797;SDS011;22748;8.426;99.512;2024-01-07T04:41:23;32.08;;;25.15;;
36797;SDS011;22748;8.426;99.512;2024-01-07T04:46:26;31.33;;;23.23;;
36797;SDS011;22748;8.426;99.512;2024-01-07T04:48:56;29.88;;;24.13;;
36797;SDS011;22748;8.426;99.512;2024-01-07T04:51:27;34.78;;;24.30;;
36797;SDS011;22748;8.426;99.512;2024-01-07T04:53:57;26.98;;;23.83;;
36797;SDS011;22748;8.426;99.512;2024-01-07T04:56:34;33.08;;;23.98;;
36797;SDS011;22748;8.426;99.512;2024-01-07T04:59:05;31.35;;;23.70;;
36797;SDS011;22748;8.426;99.512;2024-01-07T05:01:35;30.55;;;23.88;;
36797;SDS011;22748;8.426;99.512;2024-01-07T05:04:07;29.92;;;23.10;;
36797;SDS011;22748;8.426;99.512;2024-01-07T05:06:37;37.20;;;24.50;;
36797;SDS011;22748;8.426;99.512;2024-01-07T05:09:08;35.38;;;23.58;;
36797;SDS011;22748;8.426;99.512;2024-01-07T05:11:45;31.30;;;23.25;;
36797;SDS011;22748;8.426;99.512;2024-01-07T05:14:15;28.02;;;23.60;;
36797;SDS011;22748;8.426;99.512;2024-01-07T05:16:46;35.85;;;25.30;;
36797;SDS011;22748;8.426;99.512;2024-01-07T05:19:17;32.85;;;24.95;;
36797;SDS011;22748;8.426;99.512;2024-01-07T05:21:47;32.38;;;24.90;;
36797;SDS011;22748;8.426;99.512;2024-01-07T05:24:18;32.22;;;25.70;;
36797;SDS011;22748;8.426;99.512;2024-01-07T05:29:25;31.83;;;24.75;;
36797;SDS011;22748;8.426;99.512;2024-01-07T05:31:55;34.30;;;25.80;;
36797;SDS011;22748;8.426;99.512;2024-01-07T05:34:27;30.92;;;24.45;;
36797;SDS011;22748;8.426;99.512;2024-01-07T05:36:58;33.47;;;25.17;;
36797;SDS011;22748;8.426;99.512;2024-01-07T05:39:29;34.88;;;25.98;;
36797;SDS011;22748;8.426;99.512;2024-01-07T05:42:06;33.20;;;25.25;;
36797;SDS011;22748;8.426;99.512;2024-01-07T05:44:37;39.45;;;25.73;;
36797;SDS011;22748;8.426;99.512;2024-01-07T05:47:08;34.50;;;25.20;;
36797;SDS011;22748;8.426;99.512;2024-01-07T05:49:39;37.13;;;26.15;;
36797;SDS011;22748;8.426;99.512;2024-01-07T05:52:10;35.67;;;27.02;;
36797;SDS011;22748;8.426;99.512;2024-01-07T05:54:41;37.75;;;28.27;;
36797;SDS011;22748;8.426;99.512;2024-01-07T05:57:18;42.13;;;26.35;;
36797;SDS011;22748;8.426;99.512;2024-01-07T05:59:49;44.85;;;29.05;;
36797;SDS011;22748;8.426;99.512;2024-01-07T06:02:20;42.53;;;29.30;;
36797;SDS011;22748;8.426;99.512;2024-01-07T06:07:21;34.75;;;25.02;;
36797;SDS011;22748;8.426;99.512;2024-01-07T06:09:51;29.10;;;23.17;;
36797;SDS011;22748;8.426;99.512;2024-01-07T06:12:28;34.55;;;24.02;;
36797;SDS011;22748;8.426;99.512;2024-01-07T06:14:58;33.45;;;22.35;;
36797;SDS011;22748;8.426;99.512;2024-01-07T06:17:29;29.55;;;23.13;;
36797;SDS011;22748;8.426;99.512;2024-01-07T06:20:00;34.30;;;24.25;;
36797;SDS011;22748;8.426;99.512;2024-01-07T06:22:32;29.70;;;22.80;;
36797;SDS011;22748;8.426;99.512;2024-01-07T06:25:02;28.17;;;24.17;;
36797;SDS011;22748;8.426;99.512;2024-01-07T06:27:37;33.13;;;23.83;;
36797;SDS011;22748;8.426;99.512;2024-01-07T06:30:09;30.80;;;24.15;;
36797;SDS011;22748;8.426;99.512;2024-01-07T06:35:09;30.00;;;26.38;;
36797;SDS011;22748;8.426;99.512;2024-01-07T06:37:39;29.17;;;23.10;;
36797;SDS011;22748;8.426;99.512;2024-01-07T06:40:10;28.63;;;23.88;;
36797;SDS011;22748;8.426;99.512;2024-01-07T06:42:48;27.83;;;22.75;;
36797;SDS011;22748;8.426;99.512;2024-01-07T06:45:19;25.58;;;22.92;;
36797;SDS011;22748;8.426;99.512;2024-01-07T06:47:50;27.60;;;21.65;;
36797;SDS011;22748;8.426;99.512;2024-01-07T06:50:21;28.60;;;23.23;;
36797;SDS011;22748;8.426;99.512;2024-01-07T06:52:52;29.70;;;24.10;;
36797;SDS011;22748;8.426;99.512;2024-01-07T06:55:22;26.33;;;23.15;;
36797;SDS011;22748;8.426;99.512;2024-01-07T06:57:59;31.73;;;24.15;;
36797;SDS011;22748;8.426;99.512;2024-01-07T07:00:30;25.00;;;22.42;;
36797;SDS011;22748;8.426;99.512;2024-01-07T07:03:01;31.13;;;22.92;;
36797;SDS011;22748;8.426;99.512;2024-01-07T07:05:32;28.77;;;22.23;;
36797;SDS011;22748;8.426;99.512;2024-01-07T07:08:02;31.02;;;25.17;;
36797;SDS011;22748;8.426;99.512;2024-01-07T07:10:34;28.08;;;23.45;;
36797;SDS011;22748;8.426;99.512;2024-01-07T07:13:11;30.25;;;23.45;;
36797;SDS011;22748;8.426;99.512;2024-01-07T07:15:44;29.52;;;21.92;;
36797;SDS011;22748;8.426;99.512;2024-01-07T07:18:15;25.60;;;21.85;;
36797;SDS011;22748;8.426;99.512;2024-01-07T07:20:46;29.80;;;21.70;;
36797;SDS011;22748;8.426;99.512;2024-01-07T07:23:17;29.15;;;22.50;;
36797;SDS011;22748;8.426;99.512;2024-01-07T07:25:48;27.17;;;21.80;;
36797;SDS011;22748;8.426;99.512;2024-01-07T07:28:24;26.25;;;21.90;;
36797;SDS011;22748;8.426;99.512;2024-01-07T07:30:55;27.30;;;21.95;;
36797;SDS011;22748;8.426;99.512;2024-01-07T07:33:26;28.65;;;21.67;;
36797;SDS011;22748;8.426;99.512;2024-01-07T07:35:56;30.70;;;21.80;;
36797;SDS011;22748;8.426;99.512;2024-01-07T07:38:27;27.58;;;21.80;;
36797;SDS011;22748;8.426;99.512;2024-01-07T07:40:58;25.73;;;21.45;;
36797;SDS011;22748;8.426;99.512;2024-01-07T07:43:35;26.02;;;22.27;;
36797;SDS011;22748;8.426;99.512;2024-01-07T07:46:06;26.10;;;21.48;;
36797;SDS011;22748;8.426;99.512;2024-01-07T07:48:38;23.83;;;21.25;;
36797;SDS011;22748;8.426;99.512;2024-01-07T07:51:08;27.45;;;21.27;;
36797;SDS011;22748;8.426;99.512;2024-01-07T07:53:39;26.80;;;21.25;;
36797;SDS011;22748;8.426;99.512;2024-01-07T07:56:10;26.20;;;21.13;;
36797;SDS011;22748;8.426;99.512;2024-01-07T07:58:47;29.90;;;21.40;;
36797;SDS011;22748;8.426;99.512;2024-01-07T08:01:18;26.27;;;21.65;;
36797;SDS011;22748;8.426;99.512;2024-01-07T08:03:48;31.42;;;21.42;;
36797;SDS011;22748;8.426;99.512;2024-01-07T08:08:48;24.67;;;21.67;;
36797;SDS011;22748;8.426;99.512;2024-01-07T08:11:21;27.33;;;21.30;;
36797;SDS011;22748;8.426;99.512;2024-01-07T08:16:28;28.73;;;22.00;;
36797;SDS011;22748;8.426;99.512;2024-01-07T08:18:58;27.02;;;21.80;;
36797;SDS011;22748;8.426;99.512;2024-01-07T08:21:29;26.70;;;22.42;;
36797;SDS011;22748;8.426;99.512;2024-01-07T08:24:00;29.23;;;22.25;;
36797;SDS011;22748;8.426;99.512;2024-01-07T08:26:31;28.95;;;21.77;;
36797;SDS011;22748;8.426;99.512;2024-01-07T08:29:04;26.80;;;19.98;;
36797;SDS011;22748;8.426;99.512;2024-01-07T08:31:35;24.23;;;21.02;;
36797;SDS011;22748;8.426;99.512;2024-01-07T08:34:06;27.45;;;20.88;;
36797;SDS011;22748;8.426;99.512;2024-01-07T08:36:36;27.63;;;20.98;;
36797;SDS011;22748;8.426;99.512;2024-01-07T08:41:37;26.20;;;19.50;;
36797;SDS011;22748;8.426;99.512;2024-01-07T08:44:13;24.38;;;20.85;;
36797;SDS011;22748;8.426;99.512;2024-01-07T08:46:44;25.60;;;21.70;;
36797;SDS011;22748;8.426;99.512;2024-01-07T08:51:44;24.30;;;20.98;;
36797;SDS011;22748;8.426;99.512;2024-01-07T08:54:18;26.85;;;22.42;;
36797;SDS011;22748;8.426;99.512;2024-01-07T08:56:49;26.90;;;23.27;;
36797;SDS011;22748;8.426;99.512;2024-01-07T08:59:25;26.95;;;21.33;;
36797;SDS011;22748;8.426;99.512;2024-01-07T09:01:56;25.65;;;21.25;;
36797;SDS011;22748;8.426;99.512;2024-01-07T09:04:27;28.00;;;21.20;;
36797;SDS011;22748;8.426;99.512;2024-01-07T09:06:58;29.52;;;21.85;;
36797;SDS011;22748;8.426;99.512;2024-01-07T09:09:29;50.08;;;24.48;;
36797;SDS011;22748;8.426;99.512;2024-01-07T09:11:59;27.50;;;21.77;;
36797;SDS011;22748;8.426;99.512;2024-01-07T09:14:36;27.90;;;22.98;;
36797;SDS011;22748;8.426;99.512;2024-01-07T09:17:07;30.27;;;21.70;;
36797;SDS011;22748;8.426;99.512;2024-01-07T09:19:38;30.15;;;22.00;;
36797;SDS011;22748;8.426;99.512;2024-01-07T09:22:09;30.85;;;21.58;;
36797;SDS011;22748;8.426;99.512;2024-01-07T09:24:40;30.45;;;20.88;;
36797;SDS011;22748;8.426;99.512;2024-01-07T09:29:46;30.30;;;21.25;;
36797;SDS011;22748;8.426;99.512;2024-01-07T09:32:18;24.73;;;19.95;;
36797;SDS011;22748;8.426;99.512;2024-01-07T09:34:49;26.85;;;22.23;;
36797;SDS011;22748;8.426;99.512;2024-01-07T09:37:20;28.45;;;21.30;;
36797;SDS011;22748;8.426;99.512;2024-01-07T09:39:52;22.45;;;19.73;;
36797;SDS011;22748;8.426;99.512;2024-01-07T09:44:58;23.90;;;17.80;;
36797;SDS011;22748;8.426;99.512;2024-01-07T09:47:32;30.33;;;23.65;;
36797;SDS011;22748;8.426;99.512;2024-01-07T09:50:04;22.40;;;18.77;;
36797;SDS011;22748;8.426;99.512;2024-01-07T09:52:36;19.77;;;17.67;;
36797;SDS011;22748;8.426;99.512;2024-01-07T09:55:12;34.33;;;26.75;;
36797;SDS011;22748;8.426;99.512;2024-01-07T09:57:51;27.07;;;20.17;;
36797;SDS011;22748;8.426;99.512;2024-01-07T10:00:24;24.13;;;17.30;;
36797;SDS011;22748;8.426;99.512;2024-01-07T10:02:55;22.00;;;16.52;;
36797;SDS011;22748;8.426;99.512;2024-01-07T10:05:26;20.25;;;15.10;;
36797;SDS011;22748;8.426;99.512;2024-01-07T10:07:57;22.05;;;17.75;;
36797;SDS011;22748;8.426;99.512;2024-01-07T10:10:31;22.67;;;17.05;;
36797;SDS011;22748;8.426;99.512;2024-01-07T10:13:03;24.67;;;15.63;;
36797;SDS011;22748;8.426;99.512;2024-01-07T10:15:36;18.85;;;15.32;;
36797;SDS011;22748;8.426;99.512;2024-01-07T10:18:08;19.20;;;16.05;;
36797;SDS011;22748;8.426;99.512;2024-01-07T10:20:39;18.60;;;15.60;;
36797;SDS011;22748;8.426;99.512;2024-01-07T10:23:10;22.13;;;16.13;;
36797;SDS011;22748;8.426;99.512;2024-01-07T10:25:42;23.40;;;15.93;;
36797;SDS011;22748;8.426;99.512;2024-01-07T10:28:13;17.92;;;14.02;;
36797;SDS011;22748;8.426;99.512;2024-01-07T10:30:50;19.17;;;14.38;;
36797;SDS011;22748;8.426;99.512;2024-01-07T10:33:21;17.60;;;14.20;;
36797;SDS011;22748;8.426;99.512;2024-01-07T10:35:52;15.85;;;13.93;;
36797;SDS011;22748;8.426;99.512;2024-01-07T10:38:30;21.05;;;14.73;;
36797;SDS011;22748;8.426;99.512;2024-01-07T10:43:31;25.80;;;15.20;;
36797;SDS011;22748;8.426;99.512;2024-01-07T10:46:11;18.63;;;14.52;;
36797;SDS011;22748;8.426;99.512;2024-01-07T10:48:46;19.95;;;14.30;;
36797;SDS011;22748;8.426;99.512;2024-01-07T10:51:29;28.35;;;17.83;;
36797;SDS011;22748;8.426;99.512;2024-01-07T10:54:05;40.88;;;24.35;;
36797;SDS011;22748;8.426;99.512;2024-01-07T10:56:38;43.10;;;26.55;;
36797;SDS011;22748;8.426;99.512;2024-01-07T10:59:15;23.83;;;16.15;;
36797;SDS011;22748;8.426;99.512;2024-01-07T11:01:52;37.83;;;29.17;;
36797;SDS011;22748;8.426;99.512;2024-01-07T11:04:26;37.97;;;33.45;;
36797;SDS011;22748;8.426;99.512;2024-01-07T11:07:05;57.85;;;37.92;;
36797;SDS011;22748;8.426;99.512;2024-01-07T11:09:48;36.55;;;27.70;;
36797;SDS011;22748;8.426;99.512;2024-01-07T11:12:26;23.67;;;18.65;;
36797;SDS011;22748;8.426;99.512;2024-01-07T11:14:57;19.55;;;14.90;;
36797;SDS011;22748;8.426;99.512;2024-01-07T11:20:19;20.17;;;15.07;;
36797;SDS011;22748;8.426;99.512;2024-01-07T11:22:53;21.20;;;14.80;;
36797;SDS011;22748;8.426;99.512;2024-01-07T11:26:03;46.83;;;25.90;;
36797;SDS011;22748;8.426;99.512;2024-01-07T11:28:49;47.38;;;27.40;;
36797;SDS011;22748;8.426;99.512;2024-01-07T11:31:21;71.72;;;53.05;;
36797;SDS011;22748;8.426;99.512;2024-01-07T11:34:18;161.75;;;114.85;;
36797;SDS011;22748;8.426;99.512;2024-01-07T11:37:10;124.32;;;86.65;;
36797;SDS011;22748;8.426;99.512;2024-01-07T11:39:42;59.63;;;39.35;;
36797;SDS011;22748;8.426;99.512;2024-01-07T11:42:13;50.47;;;33.78;;
36797;SDS011;22748;8.426;99.512;2024-01-07T11:47:20;62.08;;;36.80;;
36797;SDS011;22748;8.426;99.512;2024-01-07T11:49:58;77.85;;;36.15;;
36797;SDS011;22748;8.426;99.512;2024-01-07T11:52:28;48.03;;;31.40;;
36797;SDS011;22748;8.426;99.512;2024-01-07T11:55:02;31.60;;;22.40;;
36797;SDS011;22748;8.426;99.512;2024-01-07T11:57:34;31.58;;;21.02;;
36797;SDS011;22748;8.426;99.512;2024-01-07T12:00:05;60.42;;;37.80;;
36797;SDS011;22748;8.426;99.512;2024-01-07T12:02:37;40.53;;;26.75;;
36797;SDS011;22748;8.426;99.512;2024-01-07T12:05:14;59.60;;;36.28;;
36797;SDS011;22748;8.426;99.512;2024-01-07T12:07:45;61.90;;;38.08;;
36797;SDS011;22748;8.426;99.512;2024-01-07T12:10:16;79.40;;;48.42;;
36797;SDS011;22748;8.426;99.512;2024-01-07T12:15:17;74.90;;;36.65;;
36797;SDS011;22748;8.426;99.512;2024-01-07T12:17:56;65.95;;;35.38;;
36797;SDS011;22748;8.426;99.512;2024-01-07T12:20:33;63.50;;;32.67;;
36797;SDS011;22748;8.426;99.512;2024-01-07T12:23:07;38.30;;;26.95;;
36797;SDS011;22748;8.426;99.512;2024-01-07T12:25:38;30.38;;;22.15;;
36797;SDS011;22748;8.426;99.512;2024-01-07T12:30:39;33.30;;;23.08;;
36797;SDS011;22748;8.426;99.512;2024-01-07T12:33:10;32.55;;;23.27;;
36797;SDS011;22748;8.426;99.512;2024-01-07T12:35:47;38.42;;;27.38;;
36797;SDS011;22748;8.426;99.512;2024-01-07T12:38:23;34.58;;;27.27;;
36797;SDS011;22748;8.426;99.512;2024-01-07T12:40:54;25.58;;;20.60;;
36797;SDS011;22748;8.426;99.512;2024-01-07T12:43:25;28.80;;;20.95;;
36797;SDS011;22748;8.426;99.512;2024-01-07T12:48:30;27.40;;;18.48;;
36797;SDS011;22748;8.426;99.512;2024-01-07T12:53:37;22.35;;;17.52;;
36797;SDS011;22748;8.426;99.512;2024-01-07T12:56:09;19.80;;;16.15;;
36797;SDS011;22748;8.426;99.512;2024-01-07T12:58:40;22.40;;;17.48;;
36797;SDS011;22748;8.426;99.512;2024-01-07T13:01:12;23.05;;;17.98;;
36797;SDS011;22748;8.426;99.512;2024-01-07T13:03:44;36.97;;;29.92;;
36797;SDS011;22748;8.426;99.512;2024-01-07T13:06:23;44.05;;;27.63;;
36797;SDS011;22748;8.426;99.512;2024-01-07T13:08:55;40.28;;;28.27;;
36797;SDS011;22748;8.426;99.512;2024-01-07T13:11:30;38.78;;;28.38;;
36797;SDS011;22748;8.426;99.512;2024-01-07T13:14:04;39.08;;;27.95;;
36797;SDS011;22748;8.426;99.512;2024-01-07T13:19:04;49.08;;;26.30;;
36797;SDS011;22748;8.426;99.512;2024-01-07T13:21:43;34.92;;;24.88;;
36797;SDS011;22748;8.426;99.512;2024-01-07T13:24:14;27.73;;;21.38;;
36797;SDS011;22748;8.426;99.512;2024-01-07T13:26:46;27.90;;;17.85;;
36797;SDS011;22748;8.426;99.512;2024-01-07T13:29:17;26.27;;;17.13;;
36797;SDS011;22748;8.426;99.512;2024-01-07T13:31:48;22.42;;;17.27;;
36797;SDS011;22748;8.426;99.512;2024-01-07T13:34:20;24.35;;;16.88;;
36797;SDS011;22748;8.426;99.512;2024-01-07T13:36:53;21.08;;;15.77;;
36797;SDS011;22748;8.426;99.512;2024-01-07T13:39:24;23.92;;;16.58;;
36797;SDS011;22748;8.426;99.512;2024-01-07T13:41:59;23.67;;;18.40;;
36797;SDS011;22748;8.426;99.512;2024-01-07T13:44:30;23.25;;;17.90;;
36797;SDS011;22748;8.426;99.512;2024-01-07T13:47:01;24.05;;;18.45;;
36797;SDS011;22748;8.426;99.512;2024-01-07T13:49:32;23.77;;;17.95;;
36797;SDS011;22748;8.426;99.512;2024-01-07T13:54:39;48.55;;;29.27;;
36797;SDS011;22748;8.426;99.512;2024-01-07T13:57:11;40.50;;;27.30;;
36797;SDS011;22748;8.426;99.512;2024-01-07T13:59:42;46.88;;;27.20;;
36797;SDS011;22748;8.426;99.512;2024-01-07T14:02:14;41.40;;;26.33;;
36797;SDS011;22748;8.426;99.512;2024-01-07T14:04:48;48.95;;;30.65;;
36797;SDS011;22748;8.426;99.512;2024-01-07T14:07:26;112.80;;;55.50;;
36797;SDS011;22748;8.426;99.512;2024-01-07T14:09:59;137.13;;;68.15;;
36797;SDS011;22748;8.426;99.512;2024-01-07T14:12:32;130.90;;;76.78;;
36797;SDS011;22748;8.426;99.512;2024-01-07T14:15:04;94.63;;;51.30;;
36797;SDS011;22748;8.426;99.512;2024-01-07T14:17:36;63.97;;;37.28;;
36797;SDS011;22748;8.426;99.512;2024-01-07T14:20:11;47.60;;;28.75;;
36797;SDS011;22748;8.426;99.512;2024-01-07T14:22:49;33.45;;;23.10;;
36797;SDS011;22748;8.426;99.512;2024-01-07T14:25:21;31.65;;;21.02;;
36797;SDS011;22748;8.426;99.512;2024-01-07T14:27:53;24.88;;;18.02;;
36797;SDS011;22748;8.426;99.512;2024-01-07T14:30:25;21.08;;;16.63;;
36797;SDS011;22748;8.426;99.512;2024-01-07T14:32:57;23.73;;;16.27;;
36797;SDS011;22748;8.426;99.512;2024-01-07T14:35:28;24.10;;;15.85;;
36797;SDS011;22748;8.426;99.512;2024-01-07T14:38:01;18.70;;;16.02;;
36797;SDS011;22748;8.426;99.512;2024-01-07T14:40:35;25.02;;;18.35;;
36797;SDS011;22748;8.426;99.512;2024-01-07T14:43:07;22.83;;;18.25;;
36797;SDS011;22748;8.426;99.512;2024-01-07T14:45:38;22.58;;;17.38;;
36797;SDS011;22748;8.426;99.512;2024-01-07T14:48:09;19.25;;;16.38;;
36797;SDS011;22748;8.426;99.512;2024-01-07T14:53:16;27.70;;;19.15;;
36797;SDS011;22748;8.426;99.512;2024-01-07T14:55:46;18.98;;;16.85;;
36797;SDS011;22748;8.426;99.512;2024-01-07T14:58:17;21.83;;;17.17;;
36797;SDS011;22748;8.426;99.512;2024-01-07T15:00:49;22.08;;;16.17;;
36797;SDS011;22748;8.426;99.512;2024-01-07T15:03:20;29.23;;;18.75;;
36797;SDS011;22748;8.426;99.512;2024-01-07T15:05:56;32.53;;;21.00;;
36797;SDS011;22748;8.426;99.512;2024-01-07T15:08:36;32.28;;;21.73;;
36797;SDS011;22748;8.426;99.512;2024-01-07T15:11:06;34.90;;;24.27;;
36797;SDS011;22748;8.426;99.512;2024-01-07T15:16:08;86.43;;;52.78;;
36797;SDS011;22748;8.426;99.512;2024-01-07T15:18:39;65.45;;;40.95;;
36797;SDS011;22748;8.426;99.512;2024-01-07T15:21:11;56.38;;;36.90;;
36797;SDS011;22748;8.426;99.512;2024-01-07T15:23:49;58.85;;;34.55;;
36797;SDS011;22748;8.426;99.512;2024-01-07T15:26:20;40.05;;;25.17;;
36797;SDS011;22748;8.426;99.512;2024-01-07T15:28:52;32.55;;;21.45;;
36797;SDS011;22748;8.426;99.512;2024-01-07T15:31:23;27.85;;;20.77;;
36797;SDS011;22748;8.426;99.512;2024-01-07T15:33:54;32.53;;;21.75;;
36797;SDS011;22748;8.426;99.512;2024-01-07T15:36:25;38.75;;;26.65;;
36797;SDS011;22748;8.426;99.512;2024-01-07T15:39:03;33.80;;;23.00;;
36797;SDS011;22748;8.426;99.512;2024-01-07T15:41:35;30.35;;;18.90;;
36797;SDS011;22748;8.426;99.512;2024-01-07T15:44:06;25.90;;;18.92;;
36797;SDS011;22748;8.426;99.512;2024-01-07T15:46:37;24.63;;;18.10;;
36797;SDS011;22748;8.426;99.512;2024-01-07T15:49:08;25.35;;;19.17;;
36797;SDS011;22748;8.426;99.512;2024-01-07T15:51:39;26.23;;;18.85;;
36797;SDS011;22748;8.426;99.512;2024-01-07T15:54:16;39.85;;;24.45;;
36797;SDS011;22748;8.426;99.512;2024-01-07T15:56:47;43.03;;;26.35;;